createdAt,value
2022-09-12T00:01:26.727Z,97171.69
2022-09-12T00:04:01.770Z,97173.16
2022-09-12T00:06:35.800Z,97181.63
2022-09-12T00:09:05.898Z,97180.13
2022-09-12T00:11:37.138Z,97174.41
2022-09-12T00:14:05.893Z,97178.13
2022-09-12T00:16:38.523Z,97173.41
2022-09-12T00:19:07.918Z,97181.03
2022-09-12T00:21:37.437Z,97176.31
2022-09-12T00:24:06.328Z,97185.75
2022-09-12T00:26:37.146Z,97186.97
2022-09-12T00:29:05.259Z,97187.94
2022-09-12T00:31:33.652Z,97193.22
2022-09-12T00:34:04.133Z,97198.75
2022-09-12T00:36:32.606Z,97194.94
2022-09-12T00:39:05.369Z,97192.88
2022-09-12T00:41:41.141Z,97187.25
2022-09-12T00:44:11.893Z,97188.00
2022-09-12T00:47:06.827Z,97186.50
2022-09-12T00:49:59.642Z,97183.78
2022-09-12T00:53:00.834Z,97189.94
2022-09-12T00:55:41.248Z,97186.31
2022-09-12T00:58:15.800Z,97183.22
2022-09-12T01:00:47.043Z,97175.78
2022-09-12T01:03:22.111Z,97174.59
2022-09-12T01:06:16.463Z,97170.34
2022-09-12T01:08:45.357Z,97174.31
2022-09-12T01:11:14.249Z,97164.56
2022-09-12T01:13:43.053Z,97173.69
2022-09-12T01:16:11.129Z,97168.69
2022-09-12T01:18:44.893Z,97173.63
2022-09-12T01:21:37.058Z,97176.31
2022-09-12T01:24:33.390Z,97174.47
2022-09-12T01:27:22.701Z,97179.13
2022-09-12T01:29:50.654Z,97185.97
2022-09-12T01:32:21.721Z,97178.41
2022-09-12T01:35:17.066Z,97182.50
2022-09-12T01:37:54.257Z,97181.81
2022-09-12T01:40:39.115Z,97184.78
2022-09-12T01:43:39.004Z,97185.38
2022-09-12T01:46:15.885Z,97188.63
2022-09-12T01:48:51.773Z,97187.75
2022-09-12T01:51:48.325Z,97194.31
2022-09-12T01:54:32.476Z,97198.63
2022-09-12T01:57:10.722Z,97200.13
2022-09-12T01:59:46.204Z,97201.22
2022-09-12T02:02:19.265Z,97198.59
2022-09-12T02:05:13.905Z,97201.91
2022-09-12T02:07:57.860Z,97204.94
2022-09-12T02:10:32.542Z,97195.53
2022-09-12T02:13:19.733Z,97192.59
2022-09-12T02:15:55.407Z,97196.50
2022-09-12T02:18:26.367Z,97190.47
2022-09-12T02:20:55.544Z,97188.59
2022-09-12T02:23:29.682Z,97197.84
2022-09-12T02:26:07.332Z,97199.81
2022-09-12T02:28:40.140Z,97186.59
2022-09-12T02:31:26.772Z,97196.56
2022-09-12T02:34:09.765Z,97194.06
2022-09-12T02:36:40.295Z,97200.88
2022-09-12T02:39:08.350Z,97211.78
2022-09-12T02:41:36.859Z,97206.97
2022-09-12T02:44:06.455Z,97203.25
2022-09-12T02:46:41.805Z,97199.13
2022-09-12T02:49:12.476Z,97210.41
2022-09-12T02:51:46.369Z,97207.09
2022-09-12T02:54:16.412Z,97207.84
2022-09-12T02:56:46.388Z,97208.94
2022-09-12T02:59:19.585Z,97212.41
2022-09-12T03:02:04.817Z,97227.47
2022-09-12T03:04:44.817Z,97224.78
2022-09-12T03:07:41.263Z,97239.38
2022-09-12T03:10:34.152Z,97240.53
2022-09-12T03:13:46.105Z,97243.78
2022-09-12T03:16:35.166Z,97238.63
2022-09-12T03:19:43.869Z,97242.50
2022-09-12T03:22:24.543Z,97252.94
2022-09-12T03:24:55.665Z,97258.00
2022-09-12T03:27:30.944Z,97258.69
2022-09-12T03:29:59.350Z,97264.84
2022-09-12T03:32:51.368Z,97265.16
2022-09-12T03:35:23.170Z,97268.88
2022-09-12T03:37:53.489Z,97265.63
2022-09-12T03:40:26.440Z,97272.47
2022-09-12T03:42:56.832Z,97272.78
2022-09-12T03:45:24.858Z,97269.19
2022-09-12T03:47:55.317Z,97272.53
2022-09-12T03:50:25.728Z,97279.47
2022-09-12T03:52:53.884Z,97278.19
2022-09-12T03:55:21.921Z,97284.19
2022-09-12T03:57:53.077Z,97278.47
2022-09-12T04:00:21.171Z,97280.75
2022-09-12T04:02:54.950Z,97295.22
2022-09-12T04:05:22.992Z,97293.84
2022-09-12T04:07:50.997Z,97293.78
2022-09-12T04:10:22.310Z,97286.91
2022-09-12T04:12:50.387Z,97289.97
2022-09-12T04:15:18.479Z,97301.28
2022-09-12T04:17:49.230Z,97303.63
2022-09-12T04:20:17.297Z,97299.91
2022-09-12T04:22:45.369Z,97301.75
2022-09-12T04:25:16.232Z,97300.81
2022-09-12T04:27:44.287Z,97300.81
2022-09-12T04:30:12.830Z,97298.88
2022-09-12T04:32:43.771Z,97303.16
2022-09-12T04:35:11.799Z,97304.53
2022-09-12T04:37:39.935Z,97313.66
2022-09-12T04:40:08.560Z,97315.06
2022-09-12T04:42:36.639Z,97320.91
2022-09-12T04:45:05.025Z,97321.19
2022-09-12T04:47:33.025Z,97328.94
2022-09-12T04:50:01.040Z,97335.94
2022-09-12T04:52:31.687Z,97329.88
2022-09-12T04:54:59.712Z,97331.94
2022-09-12T04:57:30.283Z,97332.16
2022-09-12T05:00:05.151Z,97329.94
2022-09-12T05:02:35.781Z,97325.41
2022-09-12T05:05:04.480Z,97331.31
2022-09-12T05:07:35.856Z,97324.38
2022-09-12T05:10:04.824Z,97329.00
2022-09-12T05:12:35.244Z,97324.13
2022-09-12T05:15:06.222Z,97327.81
2022-09-12T05:17:36.541Z,97326.16
2022-09-12T05:20:07.206Z,97327.31
2022-09-12T05:22:35.295Z,97329.25
2022-09-12T05:25:05.873Z,97326.94
2022-09-12T05:27:33.890Z,97330.56
2022-09-12T05:30:01.958Z,97330.56
2022-09-12T05:32:32.861Z,97337.94
2022-09-12T05:35:00.908Z,97336.22
2022-09-12T05:37:31.841Z,97322.91
2022-09-12T05:40:04.037Z,97334.63
2022-09-12T05:42:32.134Z,97331.84
2022-09-12T05:45:02.764Z,97335.59
2022-09-12T05:47:30.860Z,97337.88
2022-09-12T05:49:58.833Z,97337.03
2022-09-12T05:52:27.545Z,97339.47
2022-09-12T05:54:55.584Z,97342.03
2022-09-12T05:57:23.677Z,97345.22
2022-09-12T05:59:54.266Z,97349.38
2022-09-12T06:02:22.446Z,97348.47
2022-09-12T06:04:50.471Z,97351.81
2022-09-12T06:07:20.747Z,97349.47
2022-09-12T06:09:48.843Z,97354.91
2022-09-12T06:12:16.822Z,97352.53
2022-09-12T06:14:44.860Z,97357.34
2022-09-12T06:17:12.886Z,97358.63
2022-09-12T06:19:41.018Z,97362.06
2022-09-12T06:22:09.022Z,97367.41
2022-09-12T06:24:37.056Z,97373.69
2022-09-12T06:27:05.338Z,97378.59
2022-09-12T06:29:36.233Z,97371.94
2022-09-12T06:32:04.319Z,97377.34
2022-09-12T06:34:33.199Z,97379.84
2022-09-12T06:37:01.180Z,97374.19
2022-09-12T06:39:34.602Z,97372.88
2022-09-12T06:42:02.625Z,97374.09
2022-09-12T06:44:30.645Z,97376.22
2022-09-12T06:46:58.977Z,97370.03
2022-09-12T06:49:29.287Z,97375.75
2022-09-12T06:51:57.347Z,97373.56
2022-09-12T06:54:25.408Z,97377.31
2022-09-12T06:56:53.432Z,97380.16
2022-09-12T06:59:21.417Z,97380.56
2022-09-12T07:01:49.498Z,97393.44
2022-09-12T07:04:17.532Z,97383.50
2022-09-12T07:06:45.563Z,97385.59
2022-09-12T07:09:16.854Z,97380.66
2022-09-12T07:11:46.276Z,97382.84
2022-09-12T07:14:15.305Z,97380.75
2022-09-12T07:16:46.265Z,97374.19
2022-09-12T07:19:14.285Z,97379.94
2022-09-12T07:21:42.362Z,97378.28
2022-09-12T07:24:11.473Z,97380.22
2022-09-12T07:26:40.740Z,97381.50
2022-09-12T07:32:02.744Z,97383.94
2022-09-12T07:34:30.817Z,97375.22
2022-09-12T07:37:01.457Z,97387.28
2022-09-12T07:39:32.148Z,97376.28
2022-09-12T07:42:00.150Z,97379.44
2022-09-12T07:44:31.155Z,97384.97
2022-09-12T07:46:59.523Z,97385.00
2022-09-12T07:49:31.198Z,97385.31
2022-09-12T07:51:59.534Z,97388.41
2022-09-12T07:54:27.542Z,97381.91
2022-09-12T07:56:55.604Z,97387.06
2022-09-12T07:59:50.851Z,97389.69
2022-09-12T08:02:18.102Z,97385.84
2022-09-12T08:04:46.345Z,97379.72
2022-09-12T08:07:14.321Z,97374.25
2022-09-12T08:09:42.421Z,97380.72
2022-09-12T08:12:10.472Z,97385.72
2022-09-12T08:14:41.164Z,97386.47
2022-09-12T08:17:14.292Z,97380.53
2022-09-12T08:19:42.323Z,97382.88
2022-09-12T08:22:13.950Z,97392.47
2022-09-12T08:24:44.590Z,97390.78
2022-09-12T08:27:12.574Z,97384.25
2022-09-12T08:29:43.095Z,97395.13
2022-09-12T08:32:11.189Z,97396.31
2022-09-12T08:34:44.307Z,97401.66
2022-09-12T08:37:12.603Z,97403.81
2022-09-12T08:39:43.076Z,97407.69
2022-09-12T08:42:22.228Z,97405.66
2022-09-12T08:45:08.015Z,97399.94
2022-09-12T08:47:40.902Z,97402.31
2022-09-12T08:50:11.787Z,97401.97
2022-09-12T08:53:10.966Z,97411.44
2022-09-12T08:55:43.758Z,97412.19
2022-09-12T08:58:20.389Z,97422.88
2022-09-12T09:00:58.417Z,97411.44
2022-09-12T09:04:07.408Z,97412.63
2022-09-12T09:06:58.872Z,97410.88
2022-09-12T09:09:54.052Z,97419.63
2022-09-12T09:12:40.420Z,97411.69
2022-09-12T09:15:23.376Z,97419.25
2022-09-12T09:18:11.981Z,97406.72
2022-09-12T09:20:39.930Z,97409.34
2022-09-12T09:23:32.004Z,97417.03
2022-09-12T09:26:06.135Z,97416.28
2022-09-12T09:28:49.201Z,97412.03
2022-09-12T09:31:20.665Z,97405.16
2022-09-12T09:33:56.181Z,97399.00
2022-09-12T09:37:00.979Z,97390.97
2022-09-12T09:39:43.063Z,97390.97
2022-09-12T09:42:23.805Z,97388.75
2022-09-12T09:44:58.657Z,97384.19
2022-09-12T09:47:29.123Z,97389.91
2022-09-12T09:49:57.180Z,97393.75
2022-09-12T09:52:31.632Z,97395.28
2022-09-12T09:55:02.681Z,97399.09
2022-09-12T09:57:37.960Z,97407.88
2022-09-12T10:00:29.951Z,97412.81
2022-09-12T10:03:13.483Z,97409.03
2022-09-12T10:05:52.568Z,97414.78
2022-09-12T10:08:35.645Z,97414.41
2022-09-12T10:11:19.481Z,97409.44
2022-09-12T10:13:58.768Z,97410.56
2022-09-12T10:16:48.751Z,97404.84
2022-09-12T10:19:34.416Z,97402.53
2022-09-12T10:22:07.073Z,97406.00
2022-09-12T10:24:43.509Z,97407.50
2022-09-12T10:27:14.260Z,97405.16
2022-09-12T10:30:02.538Z,97400.16
2022-09-12T10:32:38.918Z,97405.56
2022-09-12T10:35:19.219Z,97411.66
2022-09-12T10:37:55.508Z,97404.41
2022-09-12T10:40:29.883Z,97400.25
2022-09-12T10:43:00.409Z,97394.88
2022-09-12T10:45:36.693Z,97394.50
2022-09-12T10:48:26.129Z,97385.38
2022-09-12T10:50:57.512Z,97394.88
2022-09-12T10:53:34.710Z,97392.22
2022-09-12T10:56:19.543Z,97391.47
2022-09-12T10:59:10.087Z,97388.03
2022-09-12T11:02:06.107Z,97388.75
2022-09-12T11:04:54.701Z,97391.56
2022-09-12T11:07:48.578Z,97397.59
2022-09-12T11:10:49.787Z,97408.66
2022-09-12T11:13:35.888Z,97407.69
2022-09-12T11:16:24.106Z,97395.53
2022-09-12T11:19:26.168Z,97394.81
2022-09-12T11:22:12.166Z,97394.06
2022-09-12T11:25:10.496Z,97394.06
2022-09-12T11:27:52.424Z,97393.31
2022-09-12T11:30:20.671Z,97383.34
2022-09-12T11:33:03.221Z,97382.91
2022-09-12T11:35:32.524Z,97390.19
2022-09-12T11:38:29.862Z,97384.47
2022-09-12T11:41:08.613Z,97382.97
2022-09-12T11:44:17.630Z,97376.88
2022-09-12T11:46:51.112Z,97376.53
2022-09-12T11:49:36.014Z,97376.19
2022-09-12T11:52:18.052Z,97380.75
2022-09-12T11:55:12.534Z,97370.38
2022-09-12T11:57:49.480Z,97371.00
2022-09-12T12:00:23.995Z,97362.75
2022-09-12T12:03:10.245Z,97368.16
2022-09-12T12:05:48.986Z,97370.06
2022-09-12T12:08:20.149Z,97375.81
2022-09-12T12:11:02.558Z,97365.41
2022-09-12T12:13:37.863Z,97367.75
2022-09-12T12:16:27.868Z,97372.34
2022-09-12T12:18:59.416Z,97368.88
2022-09-12T12:21:34.446Z,97381.09
2022-09-12T12:24:13.407Z,97381.09
2022-09-12T12:26:43.164Z,97390.63
2022-09-12T12:29:12.569Z,97385.66
2022-09-12T12:32:04.952Z,97386.34
2022-09-12T12:34:38.608Z,97391.69
2022-09-12T12:37:22.582Z,97391.28
2022-09-12T12:39:50.633Z,97379.13
2022-09-12T12:42:34.166Z,97377.16
2022-09-12T12:45:10.700Z,97378.31
2022-09-12T12:47:54.046Z,97378.72
2022-09-12T12:50:25.403Z,97378.00
2022-09-12T12:52:57.783Z,97368.38
2022-09-12T12:55:27.390Z,97367.66
2022-09-12T12:57:57.457Z,97370.34
2022-09-12T13:00:25.457Z,97367.75
2022-09-12T13:02:57.484Z,97371.97
2022-09-12T13:05:31.372Z,97372.31
2022-09-12T13:08:10.671Z,97370.75
2022-09-12T13:10:39.637Z,97375.28
2022-09-12T13:13:09.217Z,97366.50
2022-09-12T13:15:37.934Z,97363.88
2022-09-12T13:18:11.676Z,97363.50
2022-09-12T13:20:52.960Z,97379.13
2022-09-12T13:23:31.843Z,97386.03
2022-09-12T13:26:05.286Z,97381.84
2022-09-12T13:28:34.134Z,97380.72
2022-09-12T13:31:08.006Z,97381.59
2022-09-12T13:33:42.740Z,97384.66
2022-09-12T13:36:31.428Z,97376.72
2022-09-12T13:39:12.341Z,97370.28
2022-09-12T13:42:08.650Z,97365.72
2022-09-12T13:44:49.328Z,97357.72
2022-09-12T13:47:24.788Z,97373.00
2022-09-12T13:49:59.009Z,97374.53
2022-09-12T13:52:32.385Z,97384.81
2022-09-12T13:55:07.457Z,97386.00
2022-09-12T13:57:39.367Z,97390.94
2022-09-12T14:00:19.302Z,97396.25
2022-09-12T14:02:50.011Z,97399.03
2022-09-12T14:05:25.594Z,97400.09
2022-09-12T14:07:57.953Z,97403.59
2022-09-12T14:10:52.496Z,97404.41
2022-09-12T14:13:26.063Z,97402.91
2022-09-12T14:15:56.749Z,97409.00
2022-09-12T14:18:31.518Z,97415.50
2022-09-12T14:21:16.956Z,97424.28
2022-09-12T14:23:49.037Z,97433.78
2022-09-12T14:26:17.683Z,97445.66
2022-09-12T14:28:47.219Z,97447.94
2022-09-12T14:31:15.403Z,97442.63
2022-09-12T14:33:54.260Z,97442.22
2022-09-12T14:36:24.575Z,97442.97
2022-09-12T14:39:00.342Z,97444.09
2022-09-12T14:41:42.371Z,97440.22
2022-09-12T14:44:21.984Z,97414.97
2022-09-12T14:46:51.062Z,97396.22
2022-09-12T14:49:31.393Z,97393.13
2022-09-12T14:52:02.376Z,97412.19
2022-09-12T14:54:30.392Z,97420.66
2022-09-12T14:57:03.987Z,97413.56
2022-09-12T14:59:34.687Z,97414.59
2022-09-12T15:02:21.740Z,97437.91
2022-09-12T15:04:56.106Z,97426.50
2022-09-12T15:07:37.346Z,97420.22
2022-09-12T15:10:14.585Z,97417.53
2022-09-12T15:12:42.657Z,97419.25
2022-09-12T15:15:21.937Z,97414.59
2022-09-12T15:17:50.019Z,97406.03
2022-09-12T15:20:20.897Z,97409.03
2022-09-12T15:22:49.086Z,97407.94
2022-09-12T15:25:20.119Z,97404.88
2022-09-12T15:27:48.834Z,97402.88
2022-09-12T15:30:16.971Z,97399.09
2022-09-12T15:32:50.209Z,97402.34
2022-09-12T15:35:24.388Z,97391.94
2022-09-12T15:37:52.765Z,97391.22
2022-09-12T15:40:20.822Z,97380.03
2022-09-12T15:42:48.922Z,97382.38
2022-09-12T15:45:19.775Z,97388.56
2022-09-12T15:47:47.805Z,97390.16
2022-09-12T15:50:16.337Z,97378.69
2022-09-12T15:52:44.406Z,97364.84
2022-09-12T15:55:24.308Z,97376.19
2022-09-12T15:57:52.674Z,97392.97
2022-09-12T16:00:20.965Z,97391.84
2022-09-12T16:02:52.130Z,97395.09
2022-09-12T16:05:24.507Z,97405.09
2022-09-12T16:07:55.899Z,97406.56
2022-09-12T16:10:26.808Z,97403.75
2022-09-12T16:12:57.561Z,97404.41
2022-09-12T16:15:29.083Z,97389.22
2022-09-12T16:17:57.134Z,97384.16
2022-09-12T16:20:27.825Z,97397.03
2022-09-12T16:22:58.508Z,97390.78
2022-09-12T16:25:26.577Z,97388.13
2022-09-12T16:27:54.760Z,97391.94
2022-09-12T16:30:22.988Z,97389.97
2022-09-12T16:32:52.985Z,97395.06
2022-09-12T16:35:21.077Z,97390.28
2022-09-12T16:37:49.088Z,97387.22
2022-09-12T16:40:17.569Z,97396.75
2022-09-12T16:42:48.732Z,97403.66
2022-09-12T16:45:17.080Z,97393.75
2022-09-12T16:47:45.371Z,97409.25
2022-09-12T16:50:13.424Z,97407.69
2022-09-12T16:52:41.519Z,97405.53
2022-09-12T16:55:10.872Z,97411.59
2022-09-12T16:57:38.866Z,97410.56
2022-09-12T17:00:07.653Z,97418.41
2022-09-12T17:02:35.791Z,97413.84
2022-09-12T17:05:04.383Z,97418.13
2022-09-12T17:07:37.601Z,97420.53
2022-09-12T17:10:05.931Z,97422.00
2022-09-12T17:12:33.997Z,97415.44
2022-09-12T17:15:04.568Z,97424.78
2022-09-12T17:17:32.559Z,97432.47
2022-09-12T17:20:00.613Z,97432.22
2022-09-12T17:22:32.569Z,97432.81
2022-09-12T17:25:01.794Z,97441.22
2022-09-12T17:27:29.849Z,97450.59
2022-09-12T17:29:57.883Z,97450.50
2022-09-12T17:32:25.954Z,97452.31
2022-09-12T17:34:54.099Z,97455.25
2022-09-12T17:37:24.718Z,97449.19
2022-09-12T17:39:55.125Z,97447.19
2022-09-12T17:42:23.215Z,97446.72
2022-09-12T17:44:54.128Z,97452.66
2022-09-12T17:47:22.161Z,97454.56
2022-09-12T17:49:50.161Z,97453.09
2022-09-12T17:52:18.170Z,97445.47
2022-09-12T17:54:46.248Z,97443.09
2022-09-12T17:57:14.273Z,97449.91
2022-09-12T17:59:42.326Z,97442.53
2022-09-12T18:02:13.850Z,97443.00
2022-09-12T18:04:46.006Z,97437.78
2022-09-12T18:07:17.988Z,97427.81
2022-09-12T18:09:46.561Z,97408.44
2022-09-12T18:12:15.970Z,97412.88
2022-09-12T18:14:44.102Z,97402.16
2022-09-12T18:17:12.170Z,97404.22
2022-09-12T18:19:40.231Z,97400.75
2022-09-12T18:22:08.268Z,97400.28
2022-09-12T18:24:36.900Z,97388.28
2022-09-12T18:27:05.132Z,97386.16
2022-09-12T18:29:33.284Z,97389.88
2022-09-12T18:32:01.319Z,97384.50
2022-09-12T18:34:32.325Z,97386.75
2022-09-12T18:37:00.383Z,97372.94
2022-09-12T18:39:28.414Z,97362.88
2022-09-12T18:41:56.520Z,97362.09
2022-09-12T18:44:24.621Z,97355.91
2022-09-12T18:46:52.679Z,97351.22
2022-09-12T18:49:20.874Z,97348.13
2022-09-12T18:51:48.936Z,97343.56
2022-09-12T18:54:16.956Z,97341.91
2022-09-12T18:56:44.962Z,97339.06
2022-09-12T18:59:13.050Z,97333.94
2022-09-12T19:01:42.211Z,97334.69
2022-09-12T19:04:12.269Z,97315.84
2022-09-12T19:06:42.786Z,97315.38
2022-09-12T19:09:12.530Z,97312.94
2022-09-12T19:11:43.384Z,97317.66
2022-09-12T19:14:11.406Z,97311.00
2022-09-12T19:16:39.459Z,97310.38
2022-09-12T19:19:07.504Z,97302.41
2022-09-12T19:21:35.861Z,97297.91
2022-09-12T19:24:07.157Z,97294.44
2022-09-12T19:26:35.616Z,97286.78
2022-09-12T19:29:06.628Z,97278.63
2022-09-12T19:31:34.841Z,97282.88
2022-09-12T19:34:08.739Z,97278.94
2022-09-12T19:36:46.270Z,97271.88
2022-09-12T19:39:16.607Z,97279.69
2022-09-12T19:41:46.994Z,97276.38
2022-09-12T19:44:15.090Z,97269.91
2022-09-12T19:46:43.395Z,97265.06
2022-09-12T19:49:12.699Z,97266.41
2022-09-12T19:51:44.181Z,97267.16
2022-09-12T19:54:14.481Z,97257.78
2022-09-12T19:56:42.667Z,97255.41
2022-09-12T19:59:10.809Z,97254.13
2022-09-12T20:01:41.500Z,97247.28
2022-09-12T20:04:12.531Z,97243.31
2022-09-12T20:06:42.911Z,97237.69
2022-09-12T20:09:13.815Z,97240.19
2022-09-12T20:11:41.871Z,97231.38
2022-09-12T20:14:09.862Z,97233.66
2022-09-12T20:16:40.899Z,97230.97
2022-09-12T20:19:12.159Z,97222.97
2022-09-12T20:21:42.545Z,97216.91
2022-09-12T20:24:17.361Z,97207.59
2022-09-12T20:26:45.992Z,97202.69
2022-09-12T20:29:14.053Z,97197.38
2022-09-12T20:31:45.390Z,97193.50
2022-09-12T20:34:18.714Z,97189.53
2022-09-12T20:36:47.052Z,97176.88
2022-09-12T20:39:18.214Z,97177.41
2022-09-12T20:41:46.400Z,97170.00
2022-09-12T20:44:15.155Z,97164.44
2022-09-12T20:46:43.541Z,97154.28
2022-09-12T20:49:11.649Z,97150.25
2022-09-12T20:51:40.458Z,97140.34
2022-09-12T20:54:08.628Z,97145.56
2022-09-12T20:56:38.089Z,97141.88
2022-09-12T20:59:06.579Z,97143.28
2022-09-12T21:01:37.300Z,97143.03
2022-09-12T21:04:05.698Z,97140.50
2022-09-12T21:06:33.682Z,97134.69
2022-09-12T21:09:04.875Z,97125.81
2022-09-12T21:11:32.940Z,97115.94
2022-09-12T21:14:01.026Z,97114.28
2022-09-12T21:16:31.475Z,97115.84
2022-09-12T21:19:00.476Z,97120.66
2022-09-12T21:21:28.766Z,97123.41
2022-09-12T21:24:03.276Z,97122.16
2022-09-12T21:26:32.027Z,97121.13
2022-09-12T21:29:00.098Z,97114.88
2022-09-12T21:31:28.180Z,97111.13
2022-09-12T21:33:56.303Z,97097.19
2022-09-12T21:36:25.352Z,97110.94
2022-09-12T21:38:53.351Z,97107.13
2022-09-12T21:41:21.411Z,97103.50
2022-09-12T21:43:49.535Z,97105.63
2022-09-12T21:46:20.286Z,97095.03
2022-09-12T21:48:48.417Z,97094.28
2022-09-12T21:51:19.004Z,97096.50
2022-09-12T21:53:47.610Z,97099.59
2022-09-12T21:56:15.759Z,97097.28
2022-09-12T21:58:46.420Z,97094.28
2022-09-12T22:01:17.552Z,97091.44
2022-09-12T22:03:45.622Z,97078.03
2022-09-12T22:06:13.723Z,97070.75
2022-09-12T22:08:41.806Z,97071.31
2022-09-12T22:11:10.627Z,97075.28
2022-09-12T22:13:43.421Z,97069.56
2022-09-12T22:16:12.384Z,97064.03
2022-09-12T22:18:40.465Z,97052.13
2022-09-12T22:21:12.149Z,97050.56
2022-09-12T22:23:40.267Z,97061.25
2022-09-12T22:26:11.017Z,97051.44
2022-09-12T22:28:39.127Z,97044.13
2022-09-12T22:31:07.335Z,97045.41
2022-09-12T22:33:35.432Z,97056.75
2022-09-12T22:36:06.064Z,97051.09
2022-09-12T22:38:37.019Z,97051.66
2022-09-12T22:41:10.251Z,97045.41
2022-09-12T22:43:38.823Z,97044.66
2022-09-12T22:46:11.267Z,97041.09
2022-09-12T22:48:42.196Z,97034.38
2022-09-12T22:51:10.855Z,97027.91
2022-09-12T22:53:39.105Z,97024.25
2022-09-12T22:56:08.130Z,97023.53
2022-09-12T22:58:37.333Z,97020.03
2022-09-12T23:01:08.645Z,97014.31
2022-09-12T23:03:39.142Z,97014.22
2022-09-12T23:06:08.040Z,97003.41
2022-09-12T23:08:37.144Z,97000.81
2022-09-12T23:11:11.733Z,96993.88
2022-09-12T23:13:42.145Z,96987.03
2022-09-12T23:16:18.690Z,96996.41
2022-09-12T23:18:52.924Z,96997.13
2022-09-12T23:21:22.179Z,96984.97
2022-09-12T23:23:51.064Z,96984.56
2022-09-12T23:26:19.120Z,96980.44
2022-09-12T23:28:52.616Z,96982.22
2022-09-12T23:31:24.980Z,96983.41
2022-09-12T23:33:57.277Z,96975.22
2022-09-12T23:36:26.867Z,96981.50
2022-09-12T23:38:55.924Z,96972.03
2022-09-12T23:41:24.652Z,96966.19
2022-09-12T23:43:52.936Z,96961.09
2022-09-12T23:46:23.635Z,96957.59
2022-09-12T23:48:51.881Z,96948.94
2022-09-12T23:51:22.380Z,96953.66
2022-09-12T23:53:52.941Z,96950.97
2022-09-12T23:56:20.980Z,96954.88
2022-09-12T23:58:49.476Z,96949.53
